createdAt,value
2018-11-04T00:07:41.716Z,20.53
2018-11-04T00:17:46.658Z,25.33
2018-11-04T00:27:51.554Z,18.47
2018-11-04T00:37:56.390Z,18.00
2018-11-04T00:48:01.216Z,27.93
2018-11-04T00:58:06.036Z,25.27
2018-11-04T01:08:10.836Z,20.57
2018-11-04T01:18:15.641Z,25.67
2018-11-04T01:28:20.418Z,20.93
2018-11-04T01:38:25.175Z,25.13
2018-11-04T01:48:30.186Z,23.27
2018-11-04T01:58:34.996Z,23.37
2018-11-04T02:08:39.759Z,19.77
2018-11-04T02:18:44.447Z,22.93
2018-11-04T02:28:49.212Z,23.03
2018-11-04T02:38:53.971Z,23.47
2018-11-04T02:48:58.768Z,20.43
2018-11-04T02:59:03.566Z,21.53
2018-11-04T03:09:09.999Z,20.10
2018-11-04T03:19:14.772Z,18.23
2018-11-04T03:29:19.557Z,18.33
2018-11-04T03:39:24.227Z,12.30
2018-11-04T03:49:29.031Z,18.83
2018-11-04T03:59:33.838Z,24.67
2018-11-04T04:09:38.604Z,15.40
2018-11-04T04:19:43.342Z,36.97
2018-11-04T04:29:48.141Z,16.83
2018-11-04T04:39:52.940Z,18.47
2018-11-04T04:49:57.759Z,24.63
2018-11-04T05:00:02.493Z,25.47
2018-11-04T05:10:07.602Z,22.43
2018-11-04T05:20:12.334Z,21.60
2018-11-04T05:30:17.182Z,21.07
2018-11-04T05:40:21.899Z,20.23
2018-11-04T05:50:26.621Z,22.73
2018-11-04T06:00:31.322Z,19.93
2018-11-04T06:10:36.080Z,27.60
2018-11-04T06:20:40.870Z,20.53
2018-11-04T06:30:45.656Z,23.20
2018-11-04T06:40:50.410Z,24.50
2018-11-04T06:50:55.226Z,24.73
2018-11-04T07:00:59.983Z,22.10
2018-11-04T07:11:04.812Z,26.83
2018-11-04T07:21:09.684Z,20.83
2018-11-04T07:31:14.474Z,20.27
2018-11-04T07:41:19.819Z,19.17
2018-11-04T07:51:24.684Z,21.07
2018-11-04T08:01:29.554Z,22.50
2018-11-04T08:11:34.318Z,23.10
2018-11-04T08:21:39.115Z,21.00
2018-11-04T08:31:44.038Z,22.43
2018-11-04T08:41:49.037Z,22.60
2018-11-04T08:51:54.325Z,23.07
2018-11-04T09:01:59.234Z,23.10
2018-11-04T09:12:04.807Z,22.90
2018-11-04T09:22:10.068Z,23.40
2018-11-04T09:32:15.258Z,23.90
2018-11-04T09:42:20.349Z,24.87
2018-11-04T09:52:25.462Z,23.53
2018-11-04T10:02:30.446Z,24.37
2018-11-04T10:12:35.394Z,24.93
2018-11-04T10:22:40.684Z,23.07
2018-11-04T10:32:45.767Z,23.73
2018-11-04T10:42:50.620Z,23.00
2018-11-04T10:52:55.481Z,22.37
2018-11-04T11:03:00.294Z,22.43
2018-11-04T11:13:05.350Z,19.20
2018-11-04T11:23:10.296Z,18.13
2018-11-04T11:33:15.172Z,16.10
2018-11-04T11:43:20.025Z,13.07
2018-11-04T11:53:25.378Z,13.00
2018-11-04T12:03:30.284Z,12.17
2018-11-04T12:13:35.530Z,14.03
2018-11-04T12:23:41.874Z,14.67
2018-11-04T12:33:46.838Z,14.83
2018-11-04T12:43:51.873Z,15.07
2018-11-04T12:53:57.144Z,14.65
2018-11-04T13:04:02.157Z,15.77
2018-11-04T13:14:07.754Z,17.27
2018-11-04T13:24:12.702Z,16.63
2018-11-04T13:34:17.632Z,17.17
2018-11-04T13:44:22.534Z,16.80
2018-11-04T13:54:27.420Z,14.40
2018-11-04T14:04:32.860Z,16.30
2018-11-04T14:14:38.177Z,14.07
2018-11-04T14:24:43.504Z,15.10
2018-11-04T14:34:48.657Z,15.00
2018-11-04T14:44:53.926Z,12.73
2018-11-04T14:54:59.416Z,12.20
2018-11-04T15:05:04.615Z,11.70
2018-11-04T15:15:12.260Z,12.00
2018-11-04T15:25:18.987Z,13.17
2018-11-04T15:35:24.372Z,15.80
2018-11-04T15:45:29.810Z,14.53
2018-11-04T15:55:35.290Z,17.67
2018-11-04T16:05:40.658Z,17.47
2018-11-04T16:15:45.925Z,17.17
2018-11-04T16:25:50.882Z,17.80
2018-11-04T16:35:56.309Z,18.07
2018-11-04T16:46:01.724Z,18.07
2018-11-04T16:56:07.179Z,19.07
2018-11-04T17:06:12.120Z,18.60
2018-11-04T17:16:17.090Z,22.90
2018-11-04T17:26:22.195Z,19.23
2018-11-04T17:36:27.083Z,19.80
2018-11-04T17:46:32.163Z,21.10
2018-11-04T17:56:37.246Z,17.27
2018-11-04T18:06:42.376Z,20.60
2018-11-04T18:16:47.483Z,22.03
2018-11-04T18:26:52.435Z,24.77
2018-11-04T18:36:57.959Z,24.77
2018-11-04T18:47:03.054Z,24.07
2018-11-04T18:57:08.184Z,25.70
2018-11-04T19:07:13.282Z,20.70
2018-11-04T19:17:18.774Z,22.50
2018-11-04T19:27:23.845Z,25.70
2018-11-04T19:37:29.318Z,23.00
2018-11-04T19:47:34.339Z,27.87
2018-11-04T19:57:39.856Z,27.10
2018-11-04T20:07:45.437Z,26.83
2018-11-04T20:17:51.014Z,25.53
2018-11-04T20:27:56.214Z,27.43
2018-11-04T20:38:01.578Z,25.63
2018-11-04T20:48:12.253Z,27.27
2018-11-04T20:58:17.757Z,22.63
2018-11-04T21:08:22.896Z,22.43
2018-11-04T21:18:28.056Z,24.57
2018-11-04T21:28:33.221Z,29.30
2018-11-04T21:38:38.269Z,26.30
2018-11-04T21:48:43.968Z,17.80
2018-11-04T21:58:49.056Z,21.93
2018-11-04T22:08:54.205Z,17.70
2018-11-04T22:18:59.271Z,15.10
2018-11-04T22:29:04.873Z,17.30
2018-11-04T22:39:10.184Z,22.60
2018-11-04T22:49:15.229Z,22.37
2018-11-04T22:59:20.423Z,21.63
2018-11-04T23:09:25.438Z,21.03
2018-11-04T23:19:30.327Z,20.57
2018-11-04T23:29:35.325Z,30.43
2018-11-04T23:39:40.358Z,30.80
2018-11-04T23:49:45.251Z,30.57
2018-11-04T23:59:50.272Z,30.50
